Time;durP1;ratioP1;P1;durP2;ratioP2;P2;SDS_P1;SDS_P2;PMS_P1;PMS_P2;Temp;Humidity;BMP_temperature;BMP_pressure;BME280_temperature;BME280_humidity;BME280_pressure;Samples;Min_cycle;Max_cycle;Signal;HPM_P1;HPM_P2
2021/08/26 00:00:18;;;;;;;18.87;17.37;;;16.50;99.90;;;;;;4991872;28;20458;-63
2021/08/26 00:05:48;;;;;;;19.23;17.67;;;16.50;99.90;;;;;;5011817;28;20504;-63
2021/08/26 00:08:16;;;;;;;20.20;18.20;;;16.50;99.90;;;;;;5011787;28;20803;-62
2021/08/26 00:10:44;;;;;;;18.87;17.17;;;16.50;99.90;;;;;;5011601;28;20438;-63
2021/08/26 00:13:11;;;;;;;21.90;20.10;;;16.40;99.90;;;;;;4996340;28;20482;-64
2021/08/26 00:15:40;;;;;;;21.13;19.30;;;16.40;99.90;;;;;;4992924;28;20451;-63
2021/08/26 00:18:07;;;;;;;19.53;17.83;;;16.40;99.90;;;;;;4991958;28;20485;-63
2021/08/26 00:20:35;;;;;;;19.40;17.80;;;16.40;99.90;;;;;;4991900;28;20932;-63
2021/08/26 00:23:02;;;;;;;21.47;19.73;;;16.40;99.90;;;;;;5004890;28;20477;-64
2021/08/26 00:25:29;;;;;;;20.17;18.57;;;16.40;99.90;;;;;;5011416;28;20442;-63
2021/08/26 00:27:55;;;;;;;22.60;20.50;;;16.40;99.90;;;;;;5011530;28;20449;-63
2021/08/26 00:30:22;;;;;;;20.97;18.97;;;16.30;99.90;;;;;;5011466;28;20453;-64
2021/08/26 00:32:49;;;;;;;18.67;17.00;;;16.30;99.90;;;;;;4999297;28;20843;-64
2021/08/26 00:35:16;;;;;;;19.13;17.33;;;16.20;99.90;;;;;;4991714;28;20483;-63
2021/08/26 00:37:44;;;;;;;17.60;16.00;;;16.10;99.90;;;;;;4991736;28;20453;-64
2021/08/26 00:40:11;;;;;;;18.50;16.70;;;16.10;99.90;;;;;;4991852;28;20462;-63
2021/08/26 00:42:39;;;;;;;17.20;15.60;;;16.10;99.90;;;;;;5000977;28;20474;-64
2021/08/26 00:45:07;;;;;;;18.60;16.37;;;16.10;99.90;;;;;;5012929;28;20449;-64
2021/08/26 00:47:34;;;;;;;14.40;13.10;;;16.10;99.90;;;;;;5014974;28;20449;-65
2021/08/26 00:50:01;;;;;;;16.00;14.37;;;16.10;99.90;;;;;;5014858;28;20470;-64
2021/08/26 00:52:28;;;;;;;13.83;12.43;;;16.00;99.90;;;;;;5006205;28;20475;-65
2021/08/26 00:54:56;;;;;;;18.17;13.23;;;15.90;99.90;;;;;;4995045;28;20645;-64
2021/08/26 00:57:24;;;;;;;15.00;12.37;;;15.90;99.90;;;;;;4995066;28;20508;-64
2021/08/26 00:59:51;;;;;;;14.77;10.93;;;15.80;99.90;;;;;;4995104;28;20454;-64
2021/08/26 01:02:25;;;;;;;13.73;12.17;;;15.80;99.90;;;;;;4998119;28;20470;-62
2021/08/26 01:04:57;;;;;;;14.60;11.50;;;15.70;99.90;;;;;;5014360;28;20449;-62
2021/08/26 01:07:28;;;;;;;13.27;12.00;;;15.70;99.90;;;;;;5014496;28;20470;-63
2021/08/26 01:10:03;;;;;;;12.90;11.60;;;15.70;99.90;;;;;;5014298;28;20866;-64
2021/08/26 01:12:30;;;;;;;11.30;10.20;;;15.70;99.90;;;;;;5012490;28;20469;-64
2021/08/26 01:14:58;;;;;;;12.20;11.00;;;15.70;99.90;;;;;;4995869;28;20509;-63
2021/08/26 01:17:25;;;;;;;14.67;10.67;;;15.60;99.90;;;;;;4994801;28;20454;-62
2021/08/26 01:19:54;;;;;;;16.07;10.90;;;15.60;99.90;;;;;;4994713;28;20447;-63
2021/08/26 01:22:22;;;;;;;11.20;9.33;;;15.60;99.90;;;;;;4994402;28;20501;-63
2021/08/26 01:24:54;;;;;;;10.10;8.90;;;15.60;99.90;;;;;;4994536;28;20521;-62
2021/08/26 01:27:23;;;;;;;13.43;11.30;;;15.60;99.90;;;;;;4994728;28;20457;-62
2021/08/26 01:29:50;;;;;;;14.07;9.77;;;15.60;99.90;;;;;;4994324;28;20458;-62
2021/08/26 01:32:20;;;;;;;13.57;11.10;;;15.60;99.90;;;;;;4994066;28;20450;-63
2021/08/26 01:34:47;;;;;;;11.83;10.60;;;15.60;99.90;;;;;;4994313;28;20479;-63
2021/08/26 01:37:17;;;;;;;10.27;9.17;;;15.60;99.90;;;;;;4994430;28;20489;-66
2021/08/26 01:39:46;;;;;;;12.70;9.33;;;15.60;99.90;;;;;;5000910;28;20446;-63
2021/08/26 01:42:13;;;;;;;11.73;8.23;;;15.60;99.90;;;;;;5013562;28;20994;-65
2021/08/26 01:44:41;;;;;;;9.37;8.30;;;15.60;99.90;;;;;;5013652;28;20442;-66
2021/08/26 01:47:09;;;;;;;7.13;6.43;;;15.50;99.90;;;;;;5013791;28;20442;-64
2021/08/26 01:49:36;;;;;;;14.30;10.20;;;15.60;99.90;;;;;;5008343;28;20443;-62
2021/08/26 01:52:03;;;;;;;11.27;8.13;;;15.60;99.90;;;;;;4993693;28;20447;-63
2021/08/26 01:54:30;;;;;;;11.23;7.03;;;15.60;99.90;;;;;;4993978;28;20490;-62
2021/08/26 01:56:57;;;;;;;10.90;7.87;;;15.60;99.90;;;;;;4992837;28;20450;-62
2021/08/26 01:59:24;;;;;;;11.50;7.93;;;15.60;99.90;;;;;;4997028;28;20446;-62
2021/08/26 02:01:52;;;;;;;5.03;4.07;;;15.60;99.90;;;;;;5013088;28;20529;-64
2021/08/26 02:04:19;;;;;;;6.23;4.17;;;15.40;99.90;;;;;;5013157;28;20473;-65
2021/08/26 02:06:45;;;;;;;6.13;4.13;;;15.20;99.90;;;;;;5013353;28;20446;-62
2021/08/26 02:09:12;;;;;;;5.30;3.40;;;15.00;99.90;;;;;;5011661;28;20931;-62
2021/08/26 02:11:39;;;;;;;9.17;3.70;;;14.90;99.90;;;;;;4994618;28;20447;-62
2021/08/26 02:14:05;;;;;;;7.07;4.30;;;14.90;99.90;;;;;;4993528;28;20486;-62
2021/08/26 02:16:32;;;;;;;5.37;3.47;;;14.80;99.90;;;;;;4993669;28;20451;-61
2021/08/26 02:19:00;;;;;;;6.03;3.73;;;14.80;99.90;;;;;;4993521;28;20443;-62
2021/08/26 02:21:28;;;;;;;7.80;3.80;;;14.80;99.90;;;;;;4993597;28;20814;-62
2021/08/26 02:23:55;;;;;;;8.30;4.70;;;14.80;99.90;;;;;;4993382;28;20841;-62
2021/08/26 02:26:21;;;;;;;5.40;4.00;;;14.80;99.90;;;;;;4993543;28;20449;-62
2021/08/26 02:28:49;;;;;;;8.73;3.80;;;14.80;99.90;;;;;;4993279;28;20450;-62
2021/08/26 02:31:15;;;;;;;7.30;4.53;;;14.80;99.90;;;;;;5010606;28;20442;-61
2021/08/26 02:33:42;;;;;;;3.53;3.20;;;14.80;99.90;;;;;;5012622;28;20458;-63
2021/08/26 02:36:10;;;;;;;6.73;4.37;;;14.80;99.90;;;;;;5012988;28;20458;-63
2021/08/26 02:38:37;;;;;;;5.87;4.30;;;14.80;99.90;;;;;;5002854;28;20447;-63
2021/08/26 02:41:04;;;;;;;5.77;3.63;;;14.90;99.90;;;;;;4993188;28;20447;-64
2021/08/26 02:43:30;;;;;;;10.87;4.30;;;14.90;99.90;;;;;;4993016;28;20471;-62
2021/08/26 02:45:57;;;;;;;6.00;4.10;;;14.90;99.90;;;;;;4995692;28;20801;-64
2021/08/26 02:48:24;;;;;;;6.30;4.40;;;14.90;99.90;;;;;;5012797;28;20450;-65
2021/08/26 02:50:51;;;;;;;4.70;4.20;;;14.90;99.90;;;;;;5012709;28;20442;-63
2021/08/26 02:53:19;;;;;;;12.43;5.13;;;14.90;99.90;;;;;;5012514;28;20469;-63
2021/08/26 02:55:46;;;;;;;8.73;4.57;;;14.90;99.90;;;;;;5011318;28;20478;-65
2021/08/26 02:58:13;;;;;;;7.00;4.37;;;14.90;99.90;;;;;;4993105;28;20451;-63
2021/08/26 03:00:39;;;;;;;6.30;4.33;;;14.90;99.90;;;;;;4992878;28;20477;-63
2021/08/26 03:03:06;;;;;;;8.70;4.97;;;14.90;99.90;;;;;;4992334;28;20475;-65
2021/08/26 03:05:33;;;;;;;6.20;3.80;;;15.00;99.90;;;;;;4993014;28;20849;-65
2021/08/26 03:08:00;;;;;;;11.20;5.23;;;15.00;99.90;;;;;;5011003;28;20810;-63
2021/08/26 03:10:29;;;;;;;8.50;4.03;;;15.00;99.90;;;;;;5012312;28;20524;-65
2021/08/26 03:12:56;;;;;;;5.93;4.00;;;15.00;99.90;;;;;;5011931;28;20469;-64
2021/08/26 03:15:23;;;;;;;10.17;5.10;;;15.00;99.90;;;;;;5012348;28;20481;-65
2021/08/26 03:17:50;;;;;;;5.50;3.93;;;15.00;99.90;;;;;;4994769;28;20447;-64
2021/08/26 03:20:17;;;;;;;3.67;3.37;;;15.00;99.90;;;;;;4992522;28;20443;-63
2021/08/26 03:22:43;;;;;;;11.80;5.10;;;15.00;99.90;;;;;;4992298;28;20509;-65
2021/08/26 03:25:10;;;;;;;10.23;4.00;;;15.00;99.90;;;;;;4992521;28;20442;-65
2021/08/26 03:27:38;;;;;;;7.70;3.73;;;15.00;99.90;;;;;;5007336;28;20446;-65
2021/08/26 03:30:06;;;;;;;9.80;4.60;;;15.00;99.90;;;;;;5012004;28;20474;-64
2021/08/26 03:32:33;;;;;;;7.80;3.77;;;15.00;99.90;;;;;;5012100;28;20462;-64
2021/08/26 03:35:00;;;;;;;5.20;4.47;;;15.10;99.90;;;;;;5011922;28;20481;-64
2021/08/26 03:37:27;;;;;;;4.20;3.30;;;15.10;99.90;;;;;;4998393;28;20451;-65
2021/08/26 03:39:54;;;;;;;5.27;4.30;;;15.10;99.90;;;;;;4992482;28;20813;-64
2021/08/26 03:42:20;;;;;;;5.97;4.27;;;15.10;99.90;;;;;;4991931;28;20458;-64
2021/08/26 03:44:48;;;;;;;6.37;4.10;;;15.10;99.90;;;;;;4992411;28;20980;-65
2021/08/26 03:47:15;;;;;;;6.57;5.90;;;15.10;99.90;;;;;;5003715;28;20444;-65
2021/08/26 03:49:42;;;;;;;9.97;4.73;;;15.10;99.90;;;;;;5011532;28;20450;-64
2021/08/26 03:52:09;;;;;;;6.37;5.50;;;15.10;99.90;;;;;;5011271;28;20450;-65
2021/08/26 03:54:37;;;;;;;8.60;4.40;;;15.10;99.90;;;;;;5011277;28;21045;-64
2021/08/26 03:57:04;;;;;;;5.00;4.57;;;15.10;99.90;;;;;;5001853;28;20451;-65
2021/08/26 03:59:30;;;;;;;9.30;6.00;;;15.10;99.90;;;;;;4994576;28;20442;-64
2021/08/26 04:01:58;;;;;;;10.93;4.40;;;15.10;99.90;;;;;;4996671;28;20454;-64
2021/08/26 04:04:26;;;;;;;9.80;5.03;;;15.10;99.90;;;;;;5011480;28;20461;-65
2021/08/26 04:06:53;;;;;;;8.23;5.27;;;15.20;99.90;;;;;;5011658;28;20499;-64
2021/08/26 04:09:20;;;;;;;6.40;5.23;;;15.20;99.90;;;;;;5011639;28;20460;-65
2021/08/26 04:11:47;;;;;;;6.33;3.90;;;15.10;99.90;;;;;;5000473;28;20789;-65
2021/08/26 04:14:13;;;;;;;7.90;4.53;;;15.20;99.90;;;;;;4991922;28;20513;-67
2021/08/26 04:16:41;;;;;;;5.43;3.83;;;15.20;99.90;;;;;;4992020;28;20959;-66
2021/08/26 04:19:09;;;;;;;9.27;4.50;;;15.20;99.90;;;;;;4992925;28;20454;-65
2021/08/26 04:21:36;;;;;;;7.70;5.13;;;15.20;99.90;;;;;;5004346;28;20836;-64
2021/08/26 04:24:02;;;;;;;6.07;4.23;;;15.20;99.90;;;;;;5015103;28;20477;-65
2021/08/26 04:26:30;;;;;;;9.23;4.60;;;15.20;99.90;;;;;;5014754;28;20448;-64
2021/08/26 04:28:56;;;;;;;6.23;4.70;;;15.20;99.90;;;;;;5014977;28;20449;-65
2021/08/26 04:31:24;;;;;;;9.13;4.90;;;15.20;99.90;;;;;;5007353;28;20995;-63
2021/08/26 04:33:50;;;;;;;5.77;5.17;;;15.20;99.90;;;;;;4995634;28;20470;-66
2021/08/26 04:36:18;;;;;;;5.80;5.27;;;15.30;99.90;;;;;;4995762;28;20479;-66
2021/08/26 04:38:45;;;;;;;8.53;5.17;;;15.20;99.90;;;;;;4995677;28;20447;-66
2021/08/26 04:41:12;;;;;;;8.60;5.50;;;15.20;99.90;;;;;;5000531;28;20951;-66
2021/08/26 04:43:39;;;;;;;7.30;5.93;;;15.20;99.90;;;;;;5015515;28;20548;-66
2021/08/26 04:46:05;;;;;;;7.73;7.03;;;15.20;99.90;;;;;;5015607;28;20445;-66
2021/08/26 04:48:32;;;;;;;6.60;6.10;;;15.20;99.90;;;;;;5015328;28;20947;-65
2021/08/26 04:50:59;;;;;;;6.57;6.07;;;15.20;99.90;;;;;;5008652;28;20839;-65
2021/08/26 04:53:27;;;;;;;11.37;10.27;;;15.20;99.90;;;;;;4995231;28;20466;-65
2021/08/26 04:55:53;;;;;;;9.03;7.70;;;15.20;99.90;;;;;;4995200;28;20479;-65
2021/08/26 04:58:20;;;;;;;9.57;8.83;;;15.20;99.90;;;;;;4995411;28;20455;-66
2021/08/26 05:00:47;;;;;;;10.90;8.90;;;15.20;99.90;;;;;;5012650;28;20826;-65
2021/08/26 05:03:14;;;;;;;12.13;9.37;;;15.20;99.90;;;;;;5014473;28;20481;-66
2021/08/26 05:05:40;;;;;;;11.17;10.37;;;15.20;99.90;;;;;;5014757;28;20438;-66
2021/08/26 05:08:07;;;;;;;10.67;10.00;;;15.20;99.90;;;;;;5014681;28;20446;-65
2021/08/26 05:10:38;;;;;;;11.60;10.40;;;15.20;99.90;;;;;;4998825;28;20447;-65
2021/08/26 05:13:07;;;;;;;11.70;10.60;;;15.10;99.90;;;;;;4995679;28;20478;-65
2021/08/26 05:15:34;;;;;;;11.27;10.50;;;15.20;99.90;;;;;;4995676;28;20483;-64
2021/08/26 05:18:00;;;;;;;13.17;10.10;;;15.20;99.90;;;;;;5004966;28;20789;-64
2021/08/26 05:20:27;;;;;;;10.23;9.63;;;15.20;99.90;;;;;;5014004;28;20469;-63
2021/08/26 05:22:54;;;;;;;11.50;10.43;;;15.30;99.90;;;;;;5013935;28;20870;-64
2021/08/26 05:25:21;;;;;;;10.90;9.93;;;15.20;99.90;;;;;;5014118;28;20453;-64
2021/08/26 05:27:49;;;;;;;12.33;10.07;;;15.30;99.90;;;;;;5007529;28;20447;-64
2021/08/26 05:30:15;;;;;;;11.13;10.23;;;15.30;99.90;;;;;;4994053;28;20447;-64
2021/08/26 05:32:42;;;;;;;11.47;10.37;;;15.30;99.90;;;;;;4994085;28;20471;-64
2021/08/26 05:35:10;;;;;;;11.93;10.97;;;15.40;99.90;;;;;;4994332;28;20505;-64
2021/08/26 05:37:37;;;;;;;11.50;10.70;;;15.40;99.90;;;;;;4998835;28;20450;-64
2021/08/26 05:40:05;;;;;;;13.03;11.70;;;15.50;99.90;;;;;;5013703;28;20445;-64
2021/08/26 05:42:32;;;;;;;13.27;12.00;;;15.50;99.90;;;;;;5013718;28;20843;-64
2021/08/26 05:45:00;;;;;;;12.83;11.93;;;15.50;99.90;;;;;;5013535;28;20471;-64
2021/08/26 05:47:27;;;;;;;15.10;13.80;;;15.60;99.90;;;;;;5010638;28;20470;-64
2021/08/26 05:49:53;;;;;;;17.63;13.30;;;15.50;99.90;;;;;;4994053;28;20447;-63
2021/08/26 05:52:21;;;;;;;15.13;13.67;;;15.60;99.90;;;;;;4993682;28;20454;-64
2021/08/26 05:54:48;;;;;;;14.00;12.93;;;15.60;99.90;;;;;;4993642;28;20451;-65
2021/08/26 05:57:14;;;;;;;14.43;13.33;;;15.70;99.90;;;;;;4998487;28;20480;-63
2021/08/26 05:59:41;;;;;;;16.07;15.00;;;15.80;99.90;;;;;;4992291;28;20900;-64
2021/08/26 06:02:09;;;;;;;15.03;14.13;;;15.80;99.90;;;;;;4993138;28;20477;-63
2021/08/26 06:04:35;;;;;;;13.53;12.73;;;15.90;99.90;;;;;;4993522;28;20447;-63
2021/08/26 06:07:02;;;;;;;14.13;13.40;;;15.90;99.90;;;;;;4993374;28;20446;-64
2021/08/26 06:09:29;;;;;;;14.30;12.93;;;15.80;99.90;;;;;;5012052;28;20458;-62
2021/08/26 06:11:56;;;;;;;14.70;13.90;;;15.80;99.90;;;;;;5012665;28;20446;-64
2021/08/26 06:14:22;;;;;;;14.67;13.67;;;15.80;99.90;;;;;;5013365;28;20487;-63
2021/08/26 06:16:49;;;;;;;16.53;15.10;;;15.90;99.90;;;;;;5013169;28;20488;-65
2021/08/26 06:19:17;;;;;;;15.43;14.30;;;16.00;99.90;;;;;;4996056;28;20451;-65
2021/08/26 06:21:44;;;;;;;16.67;15.60;;;16.10;99.90;;;;;;4993463;28;20457;-64
2021/08/26 06:24:10;;;;;;;15.70;14.40;;;16.00;99.90;;;;;;4993440;28;20463;-64
2021/08/26 06:26:38;;;;;;;15.17;14.30;;;16.10;99.90;;;;;;4993586;28;20450;-65
2021/08/26 06:29:04;;;;;;;14.87;14.10;;;16.10;99.90;;;;;;4993467;28;20449;-64
2021/08/26 06:31:31;;;;;;;16.93;15.70;;;16.10;99.90;;;;;;4993313;28;20450;-64
2021/08/26 06:33:58;;;;;;;17.10;16.00;;;16.10;99.90;;;;;;4993169;28;20466;-64
2021/08/26 06:36:26;;;;;;;16.67;15.57;;;16.10;99.90;;;;;;4993367;28;20483;-66
2021/08/26 06:38:52;;;;;;;17.53;15.83;;;16.30;99.90;;;;;;4993526;28;20949;-64
2021/08/26 06:41:19;;;;;;;16.83;15.73;;;16.30;99.90;;;;;;4992787;28;20450;-64
2021/08/26 06:43:46;;;;;;;16.97;15.43;;;16.40;99.90;;;;;;4993183;28;20467;-65
2021/08/26 06:46:12;;;;;;;17.30;15.70;;;16.40;99.90;;;;;;4993205;28;20450;-65
2021/08/26 06:48:39;;;;;;;16.20;15.07;;;16.50;99.90;;;;;;4993141;28;20852;-64
2021/08/26 06:51:06;;;;;;;16.10;14.93;;;16.60;99.90;;;;;;4992880;28;20773;-64
2021/08/26 06:53:34;;;;;;;16.50;15.30;;;16.70;99.90;;;;;;4992881;28;20473;-64
2021/08/26 06:56:00;;;;;;;17.43;16.03;;;16.70;99.90;;;;;;4992811;28;20478;-64
2021/08/26 06:58:27;;;;;;;15.87;14.83;;;16.70;99.90;;;;;;4993031;28;20454;-64
2021/08/26 07:00:54;;;;;;;16.23;14.80;;;16.70;99.90;;;;;;4992844;28;20979;-64
2021/08/26 07:03:21;;;;;;;15.53;14.60;;;16.80;99.90;;;;;;4992585;28;20482;-64
2021/08/26 07:05:47;;;;;;;17.13;15.73;;;16.80;99.90;;;;;;4992880;28;20443;-65
2021/08/26 07:08:14;;;;;;;17.00;16.03;;;16.90;99.90;;;;;;4992819;28;20458;-65
2021/08/26 07:10:42;;;;;;;17.97;16.33;;;17.00;99.90;;;;;;4992801;28;20458;-64
2021/08/26 07:13:09;;;;;;;16.73;15.63;;;17.20;99.90;;;;;;4992270;28;20463;-65
2021/08/26 07:15:35;;;;;;;16.70;15.53;;;17.10;99.90;;;;;;4992646;28;20979;-64
2021/08/26 07:18:03;;;;;;;19.07;17.20;;;17.20;99.90;;;;;;4992601;28;20450;-64
2021/08/26 07:20:30;;;;;;;16.90;15.80;;;17.20;99.90;;;;;;4992512;28;20454;-64
2021/08/26 07:22:56;;;;;;;17.13;16.03;;;17.10;99.90;;;;;;4992095;28;20489;-64
2021/08/26 07:25:23;;;;;;;19.67;18.00;;;17.00;99.90;;;;;;4992645;28;20802;-64
2021/08/26 07:27:51;;;;;;;17.50;15.50;;;16.90;99.90;;;;;;4992657;28;20906;-64
2021/08/26 07:30:18;;;;;;;17.10;15.70;;;16.70;99.90;;;;;;4992638;28;20447;-64
2021/08/26 07:32:45;;;;;;;17.10;15.30;;;16.50;99.90;;;;;;4992139;28;20860;-64
2021/08/26 07:35:12;;;;;;;19.60;17.90;;;16.60;99.90;;;;;;4992323;28;20447;-64
2021/08/26 07:37:39;;;;;;;17.57;16.00;;;16.80;99.90;;;;;;4992385;28;20454;-64
2021/08/26 07:40:06;;;;;;;16.30;15.23;;;16.90;99.90;;;;;;4992497;28;20454;-64
2021/08/26 07:42:33;;;;;;;18.53;16.90;;;17.10;99.90;;;;;;4992060;28;20478;-65
2021/08/26 07:45:03;;;;;;;18.23;16.93;;;17.40;99.90;;;;;;4992265;28;20817;-65
2021/08/26 07:47:30;;;;;;;18.03;16.90;;;17.60;99.90;;;;;;4992418;28;20474;-65
2021/08/26 07:49:57;;;;;;;18.30;16.77;;;17.70;99.90;;;;;;4992268;28;20447;-65
2021/08/26 07:52:24;;;;;;;20.10;16.40;;;17.60;99.90;;;;;;4991866;28;20457;-64
2021/08/26 07:54:51;;;;;;;17.87;16.13;;;17.50;99.90;;;;;;4996123;28;20450;-64
2021/08/26 07:57:18;;;;;;;18.47;16.60;;;17.30;99.90;;;;;;4996253;28;20884;-64
2021/08/26 07:59:45;;;;;;;18.27;17.00;;;17.40;99.90;;;;;;4996157;28;20454;-64
2021/08/26 08:02:12;;;;;;;18.60;16.90;;;17.70;99.90;;;;;;4995701;28;20449;-64
2021/08/26 08:04:40;;;;;;;17.60;16.30;;;17.80;99.90;;;;;;4996167;28;20917;-64
2021/08/26 08:07:07;;;;;;;17.83;16.40;;;17.80;99.90;;;;;;4996183;28;20478;-64
2021/08/26 08:09:34;;;;;;;18.30;16.93;;;17.70;99.90;;;;;;4996172;28;20798;-64
2021/08/26 08:12:00;;;;;;;18.50;17.00;;;17.90;99.90;;;;;;4995859;28;20438;-64
2021/08/26 08:14:28;;;;;;;16.80;15.83;;;17.90;99.90;;;;;;4995962;28;20467;-64
2021/08/26 08:16:55;;;;;;;17.27;15.90;;;18.00;99.90;;;;;;4995973;28;20478;-64
2021/08/26 08:19:24;;;;;;;18.60;17.00;;;18.00;99.90;;;;;;4995877;28;20451;-65
2021/08/26 08:21:50;;;;;;;16.90;16.00;;;18.10;99.90;;;;;;4995668;28;20450;-64
2021/08/26 08:24:17;;;;;;;18.20;16.33;;;18.20;99.90;;;;;;4995814;28;20466;-64
2021/08/26 08:26:44;;;;;;;17.67;16.20;;;18.10;99.90;;;;;;4995907;28;20442;-64
2021/08/26 08:29:11;;;;;;;18.70;17.20;;;18.30;99.90;;;;;;4995674;28;20473;-64
2021/08/26 08:31:37;;;;;;;20.97;17.00;;;18.40;99.90;;;;;;4995435;28;20530;-64
2021/08/26 08:34:04;;;;;;;19.93;17.83;;;18.60;99.90;;;;;;4995533;28;20474;-64
2021/08/26 08:36:32;;;;;;;18.23;16.90;;;18.30;99.90;;;;;;4995529;28;20485;-64
2021/08/26 08:38:59;;;;;;;18.57;17.33;;;17.90;99.90;;;;;;4995314;28;20956;-64
2021/08/26 08:41:25;;;;;;;16.50;15.40;;;17.70;99.90;;;;;;4994346;28;20871;-64
2021/08/26 08:43:52;;;;;;;17.07;15.80;;;17.60;99.90;;;;;;4994281;28;20553;-64
2021/08/26 08:46:20;;;;;;;16.30;15.23;;;17.40;99.90;;;;;;4994153;28;20451;-64
2021/08/26 08:48:47;;;;;;;16.00;14.93;;;17.40;99.90;;;;;;4994312;28;20501;-64
2021/08/26 08:51:15;;;;;;;17.30;16.23;;;17.50;99.90;;;;;;4994045;28;20447;-64
2021/08/26 08:53:43;;;;;;;18.27;16.90;;;17.40;99.90;;;;;;4994027;28;20481;-64
2021/08/26 08:56:10;;;;;;;16.87;15.50;;;17.50;99.90;;;;;;4994987;28;20814;-64
2021/08/26 08:58:38;;;;;;;17.53;15.80;;;17.60;99.90;;;;;;4995074;28;20443;-64
2021/08/26 09:01:05;;;;;;;18.67;16.77;;;17.70;99.90;;;;;;4994890;28;20454;-64
2021/08/26 09:03:32;;;;;;;18.63;17.07;;;17.60;99.90;;;;;;4994807;28;20486;-64
2021/08/26 09:06:00;;;;;;;18.00;16.60;;;17.70;99.90;;;;;;4994151;28;20470;-64
2021/08/26 09:08:28;;;;;;;17.30;15.87;;;17.80;99.90;;;;;;4994759;28;20454;-64
2021/08/26 09:11:10;;;;;;;17.07;16.10;;;17.90;99.90;;;;;;4994795;28;20509;-64
2021/08/26 09:13:37;;;;;;;16.90;15.40;;;18.00;99.90;;;;;;4994686;28;20560;-64
2021/08/26 09:16:04;;;;;;;17.37;16.07;;;18.10;99.90;;;;;;4994696;28;20493;-64
2021/08/26 09:18:31;;;;;;;17.73;16.47;;;18.10;99.90;;;;;;4994750;28;20929;-64
2021/08/26 09:20:59;;;;;;;17.13;15.97;;;18.20;99.90;;;;;;4994533;28;20495;-64
2021/08/26 09:23:28;;;;;;;16.97;15.70;;;17.90;99.90;;;;;;4994473;28;20474;-64
2021/08/26 09:26:15;;;;;;;16.87;15.57;;;17.90;99.90;;;;;;4994663;28;20443;-64
2021/08/26 09:28:42;;;;;;;15.40;14.50;;;17.80;99.90;;;;;;4994176;28;20457;-64
2021/08/26 09:31:10;;;;;;;15.17;14.50;;;17.70;99.90;;;;;;4994239;28;20813;-64
2021/08/26 09:34:02;;;;;;;16.30;15.30;;;17.70;99.90;;;;;;4994317;28;20462;-64
2021/08/26 09:36:31;;;;;;;16.00;15.10;;;17.60;99.90;;;;;;4984538;28;20494;-64
2021/08/26 09:38:59;;;;;;;16.23;15.43;;;17.70;99.90;;;;;;4994361;28;20454;-64
2021/08/26 09:41:53;;;;;;;16.67;15.67;;;17.70;99.90;;;;;;4994133;28;20456;-64
2021/08/26 09:44:22;;;;;;;15.03;14.33;;;17.80;99.90;;;;;;4984732;28;20481;-62
2021/08/26 09:46:51;;;;;;;15.60;14.67;;;17.80;99.90;;;;;;4994452;28;20439;-65
2021/08/26 09:49:19;;;;;;;16.00;15.10;;;17.90;99.90;;;;;;4994090;28;20449;-66
2021/08/26 09:52:03;;;;;;;16.00;15.20;;;18.20;99.90;;;;;;4993847;28;20443;-64
2021/08/26 09:54:32;;;;;;;15.00;14.13;;;18.20;99.90;;;;;;4994102;28;20474;-65
2021/08/26 09:57:00;;;;;;;16.90;15.60;;;18.20;99.90;;;;;;4994015;28;20489;-65
2021/08/26 09:59:51;;;;;;;16.30;15.40;;;18.30;99.90;;;;;;4993949;28;20451;-65
2021/08/26 10:02:19;;;;;;;15.63;14.93;;;18.20;99.90;;;;;;4993437;28;20466;-65
2021/08/26 10:04:46;;;;;;;17.27;16.03;;;18.10;99.90;;;;;;4993790;28;20458;-65
2021/08/26 10:07:14;;;;;;;16.97;16.00;;;18.50;99.90;;;;;;4993810;28;20443;-65
2021/08/26 10:09:43;;;;;;;17.10;15.90;;;19.00;99.90;;;;;;4993739;28;20810;-65
2021/08/26 10:12:14;;;;;;;15.73;15.13;;;19.00;99.90;;;;;;4993488;28;20948;-65
2021/08/26 10:14:41;;;;;;;16.00;15.40;;;19.00;99.90;;;;;;4993573;28;20447;-65
2021/08/26 10:17:08;;;;;;;16.80;15.90;;;18.90;99.90;;;;;;4992565;28;20486;-65
2021/08/26 10:19:35;;;;;;;17.33;16.20;;;19.00;99.90;;;;;;4993583;28;20454;-65
2021/08/26 10:22:03;;;;;;;17.60;16.60;;;19.40;99.90;;;;;;4993259;28;20819;-65
2021/08/26 10:24:30;;;;;;;16.53;15.83;;;19.90;99.90;;;;;;4993559;28;20541;-65
2021/08/26 10:27:02;;;;;;;18.20;17.00;;;20.00;99.90;;;;;;4993573;28;20439;-65
2021/08/26 10:29:30;;;;;;;17.33;16.63;;;20.30;99.90;;;;;;4993483;28;20453;-64
2021/08/26 10:31:59;;;;;;;18.23;16.80;;;20.10;99.90;;;;;;4993249;28;20452;-65
2021/08/26 10:34:28;;;;;;;16.83;15.97;;;20.20;99.90;;;;;;4993235;28;20467;-65
2021/08/26 10:37:18;;;;;;;18.87;17.67;;;19.60;99.90;;;;;;4993075;28;20478;-65
2021/08/26 10:39:45;;;;;;;17.50;16.60;;;19.10;99.90;;;;;;4993095;28;20952;-65
2021/08/26 10:42:41;;;;;;;16.83;15.90;;;19.00;99.90;;;;;;4992860;28;20825;-65
2021/08/26 10:45:12;;;;;;;16.37;15.67;;;18.40;99.90;;;;;;4993053;28;20949;-65
2021/08/26 10:48:17;;;;;;;18.47;17.40;;;18.00;99.90;;;;;;4992907;28;20443;-65
2021/08/26 10:50:46;;;;;;;17.20;16.20;;;17.80;99.90;;;;;;4993026;28;20447;-65
2021/08/26 10:53:16;;;;;;;18.00;17.20;;;17.60;99.90;;;;;;4992727;28;20995;-65
2021/08/26 10:55:44;;;;;;;18.27;17.10;;;17.50;99.90;;;;;;4992998;28;20501;-65
2021/08/26 10:58:36;;;;;;;17.90;16.90;;;17.70;99.90;;;;;;4992759;28;20486;-65
2021/08/26 11:01:05;;;;;;;16.77;15.87;;;17.80;99.90;;;;;;4987802;28;20463;-65
2021/08/26 11:03:52;;;;;;;16.30;15.40;;;18.20;99.90;;;;;;4992421;28;20471;-65
2021/08/26 11:06:40;;;;;;;16.53;15.73;;;18.60;99.90;;;;;;4992661;28;20815;-65
2021/08/26 11:09:34;;;;;;;17.10;16.03;;;19.10;99.90;;;;;;4992671;28;20443;-65
2021/08/26 11:12:26;;;;;;;17.50;16.30;;;19.30;99.90;;;;;;4992456;28;21603;-65
2021/08/26 11:14:55;;;;;;;17.67;16.57;;;19.70;99.90;;;;;;4992663;28;20445;-65
2021/08/26 11:17:32;;;;;;;17.57;16.67;;;20.20;99.90;;;;;;5017582;23;20876;-61
2021/08/26 11:20:00;;;;;;;16.40;15.60;;;20.30;99.90;;;;;;4991960;28;20461;-62
2021/08/26 11:22:27;;;;;;;17.90;16.90;;;21.00;99.90;;;;;;4992153;28;20454;-62
2021/08/26 11:24:57;;;;;;;18.60;17.70;;;22.00;99.90;;;;;;4992499;28;20447;-62
2021/08/26 11:27:27;;;;;;;20.30;19.20;;;23.50;99.90;;;;;;4992196;28;20469;-62
2021/08/26 11:29:54;;;;;;;19.97;19.07;;;24.60;99.90;;;;;;4992377;28;20880;-63
2021/08/26 11:32:24;;;;;;;20.13;19.23;;;24.70;98.80;;;;;;4992022;28;20963;-61
2021/08/26 11:34:54;;;;;;;20.00;18.70;;;23.70;97.00;;;;;;4992381;28;20454;-62
2021/08/26 11:37:23;;;;;;;18.70;17.70;;;22.70;96.80;;;;;;4992247;28;20479;-61
2021/08/26 11:39:56;;;;;;;18.43;17.50;;;22.00;99.40;;;;;;4992308;28;20443;-61
2021/08/26 11:42:28;;;;;;;19.93;18.93;;;21.40;99.90;;;;;;4992011;28;20819;-61
2021/08/26 11:45:20;;;;;;;19.23;18.10;;;21.40;99.90;;;;;;4992323;28;20535;-62
2021/08/26 11:47:49;;;;;;;18.40;17.60;;;21.30;99.90;;;;;;4982582;28;20470;-62
2021/08/26 11:50:21;;;;;;;19.47;18.17;;;21.20;99.90;;;;;;4992145;28;20473;-62
2021/08/26 11:52:50;;;;;;;19.87;18.97;;;22.00;99.90;;;;;;4992025;28;20526;-60
2021/08/26 11:55:17;;;;;;;18.80;18.10;;;25.30;94.60;;;;;;4992173;28;20447;-61
2021/08/26 11:57:43;;;;;;;19.40;18.57;;;24.70;91.30;;;;;;4991793;28;20482;-62
2021/08/26 12:00:13;;;;;;;20.17;19.27;;;23.20;90.40;;;;;;4992046;28;20447;-62
2021/08/26 12:02:41;;;;;;;20.20;19.40;;;23.10;92.80;;;;;;4991806;28;20454;-60
2021/08/26 12:05:15;;;;;;;20.13;19.13;;;23.10;93.60;;;;;;4992099;28;20822;-62
2021/08/26 12:07:46;;;;;;;19.50;18.60;;;23.00;94.30;;;;;;4991960;28;20466;-62
2021/08/26 12:10:16;;;;;;;19.00;18.20;;;23.50;94.30;;;;;;4992123;28;20451;-61
2021/08/26 12:12:53;;;;;;;19.50;18.40;;;22.80;93.80;;;;;;4991831;28;20449;-62
2021/08/26 12:15:26;;;;;;;19.90;19.00;;;22.80;94.10;;;;;;4991922;28;20446;-61
2021/08/26 12:17:58;;;;;;;19.63;18.67;;;23.20;94.70;;;;;;4991677;28;20833;-60
2021/08/26 12:20:26;;;;;;;19.57;18.57;;;23.10;94.40;;;;;;4991964;28;20737;-62
2021/08/26 12:22:55;;;;;;;19.87;18.50;;;22.80;95.00;;;;;;4991715;28;20952;-61
2021/08/26 12:25:27;;;;;;;19.93;19.00;;;22.60;96.10;;;;;;4991525;28;20451;-62
2021/08/26 12:27:56;;;;;;;19.70;18.80;;;22.10;96.00;;;;;;4991503;28;20521;-61
2021/08/26 12:30:44;;;;;;;19.53;18.63;;;22.20;96.20;;;;;;4991363;28;20447;-61
2021/08/26 12:33:13;;;;;;;21.50;20.40;;;21.90;97.80;;;;;;4988548;28;20462;-62
2021/08/26 12:35:46;;;;;;;19.47;18.37;;;22.00;98.70;;;;;;4991706;28;20442;-60
2021/08/26 12:38:16;;;;;;;19.10;18.30;;;22.50;99.10;;;;;;4991716;28;20980;-62
2021/08/26 12:40:52;;;;;;;19.90;18.60;;;23.00;97.70;;;;;;4993561;28;20446;-61